createdAt,value
2022-12-19T00:01:36.959Z,24.23
2022-12-19T00:04:08.047Z,25.60
2022-12-19T00:06:36.349Z,24.77
2022-12-19T00:09:03.839Z,24.53
2022-12-19T00:11:30.824Z,24.40
2022-12-19T00:13:59.067Z,25.53
2022-12-19T00:16:29.422Z,24.97
2022-12-19T00:18:59.568Z,26.87
2022-12-19T00:21:30.248Z,24.67
2022-12-19T00:23:57.733Z,24.73
2022-12-19T00:26:34.118Z,24.73
2022-12-19T00:29:13.894Z,24.60
2022-12-19T00:31:41.275Z,25.13
2022-12-19T00:34:09.731Z,24.53
2022-12-19T00:36:36.538Z,25.03
2022-12-19T00:39:07.772Z,23.87
2022-12-19T00:41:41.504Z,25.37
2022-12-19T00:44:14.520Z,24.63
2022-12-19T00:46:41.723Z,24.57
2022-12-19T00:49:08.562Z,25.43
2022-12-19T00:51:37.442Z,26.60
2022-12-19T00:54:18.395Z,23.87
2022-12-19T00:56:45.768Z,25.80
2022-12-19T00:59:12.591Z,24.37
2022-12-19T01:01:41.814Z,25.33
2022-12-19T01:04:30.751Z,25.00
2022-12-19T01:07:02.290Z,23.40
2022-12-19T01:09:30.433Z,24.77
2022-12-19T01:12:15.382Z,23.20
2022-12-19T01:14:42.142Z,23.30
2022-12-19T01:17:08.910Z,24.43
2022-12-19T01:19:40.489Z,24.87
2022-12-19T01:22:11.574Z,24.90
2022-12-19T01:24:38.531Z,24.87
2022-12-19T01:27:05.373Z,24.47
2022-12-19T01:29:33.497Z,24.80
2022-12-19T01:32:03.201Z,25.13
2022-12-19T01:34:30.171Z,25.00
2022-12-19T01:36:56.998Z,24.57
2022-12-19T01:39:23.795Z,25.00
2022-12-19T01:41:53.652Z,24.03
2022-12-19T01:44:20.446Z,24.63
2022-12-19T01:46:50.084Z,23.70
2022-12-19T01:49:34.812Z,25.10
2022-12-19T01:52:05.855Z,23.87
2022-12-19T01:54:36.966Z,23.27
2022-12-19T01:57:11.025Z,22.10
2022-12-19T01:59:42.551Z,23.20
2022-12-19T02:02:29.719Z,25.00
2022-12-19T02:04:56.595Z,21.93
2022-12-19T02:07:26.558Z,24.70
2022-12-19T02:09:57.741Z,23.83
2022-12-19T02:12:26.010Z,22.93
2022-12-19T02:14:56.013Z,22.57
2022-12-19T02:17:57.035Z,23.47
2022-12-19T02:20:51.549Z,23.20
2022-12-19T02:23:42.946Z,23.43
2022-12-19T02:26:50.048Z,21.80
2022-12-19T02:29:30.954Z,22.97
2022-12-19T02:32:07.955Z,22.40
2022-12-19T02:34:44.881Z,22.20
2022-12-19T02:37:20.798Z,22.43
2022-12-19T02:40:03.369Z,21.93
2022-12-19T02:42:35.777Z,22.83
2022-12-19T02:45:06.955Z,22.20
2022-12-19T02:47:35.551Z,21.53
2022-12-19T02:50:04.377Z,23.07
2022-12-19T02:52:31.015Z,23.10
2022-12-19T02:55:04.877Z,22.33
2022-12-19T02:58:03.423Z,21.77
2022-12-19T03:00:32.137Z,22.07
2022-12-19T03:03:23.642Z,21.67
2022-12-19T03:06:13.969Z,21.27
2022-12-19T03:08:55.647Z,19.80
2022-12-19T03:11:24.380Z,21.60
2022-12-19T03:14:02.506Z,20.63
2022-12-19T03:16:29.545Z,22.37
2022-12-19T03:18:57.739Z,22.17
2022-12-19T03:21:36.103Z,22.60
2022-12-19T03:24:05.380Z,21.10
2022-12-19T03:26:38.706Z,20.00
2022-12-19T03:29:15.434Z,22.17
2022-12-19T03:31:43.927Z,20.73
2022-12-19T03:34:18.820Z,22.53
2022-12-19T03:36:49.905Z,23.10
2022-12-19T03:39:17.722Z,21.67
2022-12-19T03:42:03.631Z,22.47
2022-12-19T03:44:37.284Z,22.17
2022-12-19T03:47:29.230Z,22.33
2022-12-19T03:49:56.216Z,22.03
2022-12-19T03:52:37.544Z,23.10
2022-12-19T03:55:27.218Z,24.00
2022-12-19T03:57:59.473Z,22.30
2022-12-19T04:00:27.187Z,23.73
2022-12-19T04:02:56.889Z,24.13
2022-12-19T04:05:27.178Z,24.93
2022-12-19T04:07:59.002Z,25.87
2022-12-19T04:10:27.850Z,23.80
2022-12-19T04:13:01.627Z,26.23
2022-12-19T04:15:50.197Z,26.83
2022-12-19T04:18:18.892Z,25.00
2022-12-19T04:20:59.874Z,26.23
2022-12-19T04:23:35.950Z,25.53
2022-12-19T04:26:06.261Z,24.30
2022-12-19T04:28:46.871Z,26.03
2022-12-19T04:31:15.803Z,23.27
2022-12-19T04:33:43.208Z,25.20
2022-12-19T04:36:10.657Z,24.93
2022-12-19T04:38:37.698Z,27.67
2022-12-19T04:41:04.643Z,25.57
2022-12-19T04:43:31.440Z,26.17
2022-12-19T04:45:58.218Z,27.83
2022-12-19T04:48:25.552Z,26.27
2022-12-19T04:50:52.617Z,27.20
2022-12-19T04:53:19.432Z,26.87
2022-12-19T04:55:46.207Z,25.97
2022-12-19T04:58:16.307Z,25.43
2022-12-19T05:00:45.886Z,27.10
2022-12-19T05:03:12.755Z,28.30
2022-12-19T05:05:39.630Z,26.17
2022-12-19T05:08:06.404Z,28.53
2022-12-19T05:10:33.229Z,27.43
2022-12-19T05:13:00.124Z,25.33
2022-12-19T05:15:26.903Z,26.23
2022-12-19T05:17:53.726Z,26.50
2022-12-19T05:20:20.525Z,26.63
2022-12-19T05:22:47.306Z,27.40
2022-12-19T05:25:14.159Z,27.97
2022-12-19T05:27:40.984Z,27.17
2022-12-19T05:30:08.582Z,29.17
2022-12-19T05:32:35.442Z,26.23
2022-12-19T05:35:02.283Z,26.47
2022-12-19T05:37:29.116Z,26.67
2022-12-19T05:39:55.867Z,28.00
2022-12-19T05:42:22.730Z,27.83
2022-12-19T05:44:49.492Z,27.83
2022-12-19T05:47:16.368Z,26.57
2022-12-19T05:49:43.125Z,28.03
2022-12-19T05:52:10.908Z,25.80
2022-12-19T05:54:37.746Z,27.40
2022-12-19T05:57:04.503Z,27.67
2022-12-19T05:59:31.338Z,27.07
2022-12-19T06:01:58.231Z,28.00
2022-12-19T06:04:26.536Z,25.27
2022-12-19T06:06:53.876Z,28.93
2022-12-19T06:09:20.706Z,27.17
2022-12-19T06:11:47.644Z,25.70
2022-12-19T06:14:14.467Z,25.13
2022-12-19T06:16:41.370Z,27.27
2022-12-19T06:19:08.294Z,26.70
2022-12-19T06:21:35.130Z,26.43
2022-12-19T06:24:01.981Z,27.17
2022-12-19T06:26:28.840Z,26.87
2022-12-19T06:28:55.715Z,27.37
2022-12-19T06:31:24.979Z,25.90
2022-12-19T06:33:52.385Z,26.97
2022-12-19T06:36:26.396Z,26.57
2022-12-19T06:38:55.353Z,27.80
2022-12-19T06:41:40.855Z,26.50
2022-12-19T06:44:12.131Z,27.07
2022-12-19T06:46:40.470Z,28.37
2022-12-19T06:49:08.913Z,26.23
2022-12-19T06:51:35.776Z,26.93
2022-12-19T06:54:02.715Z,25.03
2022-12-19T06:56:34.882Z,26.70
2022-12-19T06:59:01.734Z,26.73
2022-12-19T07:01:57.313Z,25.80
2022-12-19T07:04:33.068Z,27.90
2022-12-19T07:07:00.425Z,25.83
2022-12-19T07:09:29.384Z,28.33
2022-12-19T07:11:56.434Z,26.80
2022-12-19T07:14:23.423Z,27.77
2022-12-19T07:16:51.907Z,25.87
2022-12-19T07:19:19.429Z,26.73
2022-12-19T07:21:46.304Z,27.83
2022-12-19T07:24:14.986Z,26.70
2022-12-19T07:26:43.580Z,26.50
2022-12-19T07:29:11.964Z,27.67
2022-12-19T07:31:39.026Z,26.70
2022-12-19T07:34:05.845Z,25.47
2022-12-19T07:36:32.710Z,26.60
2022-12-19T07:38:59.652Z,25.80
2022-12-19T07:41:26.434Z,27.67
2022-12-19T07:43:53.225Z,26.43
2022-12-19T07:46:20.065Z,27.70
2022-12-19T07:48:46.906Z,26.27
2022-12-19T07:51:13.690Z,27.27
2022-12-19T07:53:40.516Z,27.20
2022-12-19T07:56:07.981Z,28.00
2022-12-19T07:58:34.800Z,25.97
2022-12-19T08:01:01.728Z,27.70
2022-12-19T08:03:28.667Z,27.33
2022-12-19T08:06:01.423Z,27.90
2022-12-19T08:08:30.253Z,27.53
2022-12-19T08:11:09.321Z,26.13
2022-12-19T08:13:40.907Z,26.00
2022-12-19T08:16:11.696Z,27.33
2022-12-19T08:18:38.666Z,25.43
2022-12-19T08:21:07.720Z,26.03
2022-12-19T08:23:34.575Z,23.40
2022-12-19T08:26:12.849Z,27.27
2022-12-19T08:28:39.993Z,25.27
2022-12-19T08:31:14.972Z,26.23
2022-12-19T08:33:41.918Z,24.63
2022-12-19T08:36:12.542Z,24.40
2022-12-19T08:38:39.797Z,26.57
2022-12-19T08:41:06.951Z,26.50
2022-12-19T08:43:33.898Z,25.67
2022-12-19T08:46:00.832Z,25.50
2022-12-19T08:48:27.788Z,26.43
2022-12-19T08:50:57.360Z,25.93
2022-12-19T08:53:26.813Z,26.70
2022-12-19T08:56:05.929Z,25.97
2022-12-19T08:58:32.776Z,24.93
2022-12-19T09:01:09.020Z,25.33
2022-12-19T09:04:04.580Z,26.70
2022-12-19T09:06:24.027Z,24.97
2022-12-19T09:08:51.061Z,24.73
2022-12-19T09:11:20.127Z,25.40
2022-12-19T09:13:48.365Z,24.90
2022-12-19T09:16:24.562Z,23.77
2022-12-19T09:18:55.032Z,23.77
2022-12-19T09:21:24.399Z,26.30
2022-12-19T09:23:55.231Z,27.43
2022-12-19T09:26:24.874Z,25.27
2022-12-19T09:28:54.302Z,27.93
2022-12-19T09:31:24.491Z,39.43
2022-12-19T09:33:52.665Z,42.83
2022-12-19T09:36:24.498Z,27.00
2022-12-19T09:38:54.860Z,25.00
2022-12-19T09:41:55.054Z,25.87
2022-12-19T09:44:43.048Z,25.93
2022-12-19T09:47:16.019Z,26.93
2022-12-19T09:49:46.532Z,28.37
2022-12-19T09:52:21.987Z,25.03
2022-12-19T09:55:20.529Z,26.47
2022-12-19T09:58:04.770Z,24.03
2022-12-19T10:00:44.574Z,21.33
2022-12-19T10:03:30.735Z,22.13
2022-12-19T10:06:43.323Z,23.97
2022-12-19T10:10:55.526Z,23.43
2022-12-19T10:13:11.053Z,22.83
2022-12-19T10:16:08.637Z,22.07
2022-12-19T10:18:51.168Z,22.83
2022-12-19T10:22:16.260Z,23.77
2022-12-19T10:25:16.678Z,22.73
2022-12-19T10:27:58.885Z,25.77
2022-12-19T10:30:27.807Z,24.97
2022-12-19T10:33:30.076Z,23.77
2022-12-19T10:36:02.338Z,23.97
2022-12-19T10:38:51.288Z,24.63
2022-12-19T10:41:29.084Z,25.50
2022-12-19T10:44:07.389Z,25.20
2022-12-19T10:46:42.053Z,25.33
2022-12-19T10:49:25.791Z,25.60
2022-12-19T10:52:05.779Z,24.23
2022-12-19T10:54:39.919Z,25.53
2022-12-19T10:57:19.848Z,24.37
2022-12-19T11:00:03.999Z,26.73
2022-12-19T11:02:46.629Z,23.87
2022-12-19T11:05:57.558Z,25.53
2022-12-19T11:08:36.096Z,22.33
2022-12-19T11:12:18.660Z,22.00
2022-12-19T11:19:34.655Z,23.87
2022-12-19T11:21:41.834Z,23.30
2022-12-19T11:29:40.286Z,22.83
2022-12-19T11:29:41.965Z,23.40
2022-12-19T11:30:38.840Z,23.30
2022-12-19T11:30:41.630Z,23.50
2022-12-19T11:34:21.241Z,23.27
2022-12-19T11:37:18.312Z,21.53
2022-12-19T11:40:15.789Z,22.00
2022-12-19T11:43:41.848Z,21.30
2022-12-19T11:46:37.165Z,20.47
2022-12-19T11:49:28.605Z,20.13
2022-12-19T11:52:29.493Z,21.80
2022-12-19T11:55:10.651Z,21.40
2022-12-19T11:57:39.763Z,21.23
2022-12-19T12:00:12.915Z,22.23
2022-12-19T12:03:18.982Z,21.43
2022-12-19T12:05:51.712Z,21.10
2022-12-19T12:10:01.456Z,22.90
2022-12-19T12:19:41.000Z,19.90
2022-12-19T12:24:58.821Z,22.27
2022-12-19T12:31:16.333Z,23.50
2022-12-19T12:31:38.459Z,22.30
2022-12-19T12:31:40.239Z,21.03
2022-12-19T12:31:46.434Z,21.60
2022-12-19T12:37:52.444Z,22.73
2022-12-19T12:38:37.393Z,21.63
2022-12-19T12:41:42.186Z,23.07
2022-12-19T12:44:12.368Z,22.93
2022-12-19T12:47:11.873Z,21.07
2022-12-19T12:49:56.384Z,21.60
2022-12-19T12:52:35.085Z,21.27
2022-12-19T12:55:05.456Z,21.13
2022-12-19T12:57:38.141Z,21.70
2022-12-19T13:00:33.944Z,22.03
2022-12-19T13:03:19.765Z,22.33
2022-12-19T13:05:46.483Z,21.33
2022-12-19T13:08:37.155Z,21.63
2022-12-19T13:11:33.249Z,22.20
2022-12-19T13:14:00.158Z,22.00
2022-12-19T13:16:45.293Z,21.87
2022-12-19T13:19:55.714Z,21.87
2022-12-19T13:22:29.800Z,21.30
2022-12-19T13:24:59.745Z,21.27
2022-12-19T13:27:26.381Z,20.67
2022-12-19T13:30:15.276Z,21.57
2022-12-19T13:32:41.984Z,22.13
2022-12-19T13:36:30.747Z,22.37
2022-12-19T13:39:54.016Z,22.33
2022-12-19T13:41:48.795Z,22.87
2022-12-19T13:44:21.730Z,22.43
2022-12-19T13:46:49.545Z,22.43
2022-12-19T13:49:34.867Z,23.37
2022-12-19T13:52:04.276Z,22.23
2022-12-19T13:54:46.964Z,22.20
2022-12-19T13:57:31.816Z,22.87
2022-12-19T14:00:07.031Z,23.17
2022-12-19T14:02:44.883Z,23.93
2022-12-19T14:05:30.623Z,31.97
2022-12-19T14:08:23.011Z,25.07
2022-12-19T14:11:45.179Z,27.27
2022-12-19T14:14:14.995Z,27.13
2022-12-19T14:16:46.184Z,25.30
2022-12-19T14:19:28.880Z,24.53
2022-12-19T14:22:24.806Z,25.17
2022-12-19T14:25:07.003Z,23.30
2022-12-19T14:28:25.301Z,24.07
2022-12-19T14:30:46.638Z,24.20
2022-12-19T14:33:46.387Z,24.03
2022-12-19T14:36:16.546Z,24.00
2022-12-19T14:39:23.550Z,39.67
2022-12-19T14:42:04.067Z,23.43
2022-12-19T14:51:42.753Z,27.20
2022-12-19T14:52:35.648Z,24.57
2022-12-19T14:54:13.317Z,23.60
2022-12-19T14:54:23.582Z,24.03
2022-12-19T14:59:44.965Z,30.27
2022-12-19T15:02:27.992Z,25.30
2022-12-19T15:05:08.703Z,27.03
2022-12-19T15:07:35.761Z,24.87
2022-12-19T15:11:07.283Z,29.27
2022-12-19T15:14:53.928Z,26.13
2022-12-19T15:16:07.138Z,27.60
2022-12-19T15:18:34.142Z,27.70
2022-12-19T15:21:05.337Z,26.17
2022-12-19T15:23:32.651Z,24.07
2022-12-19T15:26:11.712Z,23.00
2022-12-19T15:28:43.013Z,25.43
2022-12-19T15:31:42.770Z,25.57
2022-12-19T15:34:48.199Z,24.13
2022-12-19T15:37:13.240Z,22.37
2022-12-19T15:39:40.820Z,23.20
2022-12-19T15:42:21.766Z,24.10
2022-12-19T15:44:49.812Z,24.77
2022-12-19T15:47:30.039Z,23.43
2022-12-19T15:49:58.199Z,25.90
2022-12-19T15:52:25.600Z,23.50
2022-12-19T15:54:52.448Z,22.93
2022-12-19T15:57:32.925Z,25.30
2022-12-19T16:00:07.822Z,27.03
2022-12-19T16:03:13.367Z,26.23
2022-12-19T16:05:23.858Z,26.33
2022-12-19T16:07:50.850Z,26.80
2022-12-19T16:10:18.066Z,27.57
2022-12-19T16:12:49.562Z,29.47
2022-12-19T16:15:27.577Z,31.03
2022-12-19T16:17:55.914Z,27.50
2022-12-19T16:20:27.166Z,27.23
2022-12-19T16:22:55.151Z,27.13
2022-12-19T16:25:33.683Z,25.70
2022-12-19T16:28:01.771Z,25.03
2022-12-19T16:30:32.491Z,24.77
2022-12-19T16:32:59.980Z,24.93
2022-12-19T16:36:02.570Z,26.20
2022-12-19T16:38:17.057Z,23.57
2022-12-19T16:40:44.894Z,24.30
2022-12-19T16:43:25.618Z,25.90
2022-12-19T16:45:55.684Z,24.90
2022-12-19T16:48:29.532Z,25.93
2022-12-19T16:50:59.065Z,25.93
2022-12-19T16:53:25.935Z,27.50
2022-12-19T16:55:54.177Z,26.10
2022-12-19T16:58:25.437Z,25.27
2022-12-19T17:00:55.947Z,24.57
2022-12-19T17:03:43.668Z,29.60
2022-12-19T17:06:17.076Z,29.33
2022-12-19T17:08:44.915Z,27.03
2022-12-19T17:11:38.092Z,25.87
2022-12-19T17:14:18.242Z,26.80
2022-12-19T17:16:46.042Z,25.90
2022-12-19T17:19:23.813Z,24.73
2022-12-19T17:21:51.623Z,25.43
2022-12-19T17:24:19.198Z,25.90
2022-12-19T17:26:46.609Z,26.40
2022-12-19T17:29:13.987Z,25.73
2022-12-19T17:31:42.270Z,24.70
2022-12-19T17:34:21.115Z,27.27
2022-12-19T17:36:47.963Z,25.40
2022-12-19T17:39:27.601Z,25.07
2022-12-19T17:42:21.795Z,25.67
2022-12-19T17:44:48.608Z,25.97
2022-12-19T17:47:17.533Z,25.93
2022-12-19T17:49:44.462Z,24.90
2022-12-19T17:52:15.928Z,25.07
2022-12-19T17:54:42.725Z,25.33
2022-12-19T17:57:17.755Z,26.00
2022-12-19T17:59:46.494Z,25.93
2022-12-19T18:02:24.839Z,27.20
2022-12-19T18:04:52.426Z,26.23
2022-12-19T18:07:19.672Z,26.53
2022-12-19T18:09:46.686Z,26.23
2022-12-19T18:12:13.770Z,27.53
2022-12-19T18:14:40.670Z,27.57
2022-12-19T18:17:07.565Z,25.37
2022-12-19T18:19:34.756Z,25.00
2022-12-19T18:22:01.860Z,25.93
2022-12-19T18:24:28.876Z,27.23
2022-12-19T18:26:55.888Z,25.90
2022-12-19T18:29:22.806Z,26.40
2022-12-19T18:31:51.231Z,28.07
2022-12-19T18:34:23.299Z,29.53
2022-12-19T18:36:51.118Z,27.83
2022-12-19T18:39:27.664Z,26.43
2022-12-19T18:41:54.997Z,29.43
2022-12-19T18:44:23.071Z,28.67
2022-12-19T18:46:52.002Z,28.77
2022-12-19T18:49:19.367Z,27.47
2022-12-19T18:51:46.539Z,28.57
2022-12-19T18:54:22.739Z,28.53
2022-12-19T18:56:49.978Z,27.53
2022-12-19T18:59:16.867Z,27.63
2022-12-19T19:01:46.768Z,27.40
2022-12-19T19:04:17.660Z,27.43
2022-12-19T19:06:50.978Z,27.60
2022-12-19T19:09:20.188Z,26.37
2022-12-19T19:11:47.257Z,27.67
2022-12-19T19:14:14.422Z,27.53
2022-12-19T19:16:41.492Z,27.70
2022-12-19T19:19:14.248Z,28.70
2022-12-19T19:21:41.718Z,29.93
2022-12-19T19:24:17.489Z,27.50
2022-12-19T19:26:44.682Z,28.57
2022-12-19T19:29:13.540Z,28.03
2022-12-19T19:31:44.714Z,26.60
2022-12-19T19:34:19.524Z,26.13
2022-12-19T19:36:49.768Z,25.97
2022-12-19T19:39:17.673Z,26.20
2022-12-19T19:41:44.491Z,26.70
2022-12-19T19:44:11.580Z,24.20
2022-12-19T19:46:38.706Z,25.27
2022-12-19T19:49:05.626Z,24.73
2022-12-19T19:51:32.672Z,25.97
2022-12-19T19:53:59.880Z,25.17
2022-12-19T19:56:26.741Z,25.07
2022-12-19T19:58:55.205Z,24.07
2022-12-19T20:01:22.133Z,26.17
2022-12-19T20:03:49.468Z,26.43
2022-12-19T20:06:16.520Z,25.90
2022-12-19T20:08:43.263Z,25.43
2022-12-19T20:11:10.657Z,24.77
2022-12-19T20:13:38.329Z,24.47
2022-12-19T20:16:12.464Z,27.03
2022-12-19T20:18:41.174Z,26.73
2022-12-19T20:21:13.350Z,26.83
2022-12-19T20:23:42.799Z,26.37
2022-12-19T20:26:15.467Z,26.77
2022-12-19T20:28:48.366Z,25.87
2022-12-19T20:31:16.453Z,24.27
2022-12-19T20:33:43.533Z,25.50
2022-12-19T20:36:12.262Z,24.73
2022-12-19T20:38:39.725Z,27.30
2022-12-19T20:41:07.148Z,30.33
2022-12-19T20:43:34.428Z,30.90
2022-12-19T20:46:08.297Z,27.63
2022-12-19T20:48:35.594Z,26.10
2022-12-19T20:51:05.012Z,25.93
2022-12-19T20:53:33.651Z,25.27
2022-12-19T20:56:02.806Z,25.10
2022-12-19T20:58:32.652Z,25.33
2022-12-19T21:01:20.931Z,24.90
2022-12-19T21:03:49.056Z,25.57
2022-12-19T21:06:18.779Z,26.07
2022-12-19T21:08:45.925Z,26.27
2022-12-19T21:11:14.337Z,25.27
2022-12-19T21:13:41.567Z,26.57
2022-12-19T21:16:13.808Z,26.17
2022-12-19T21:18:43.159Z,26.40
2022-12-19T21:21:19.433Z,25.93
2022-12-19T21:23:47.390Z,25.07
2022-12-19T21:26:14.385Z,25.67
2022-12-19T21:28:42.280Z,24.27
2022-12-19T21:31:22.660Z,26.00
2022-12-19T21:33:51.045Z,24.60
2022-12-19T21:36:23.072Z,24.50
2022-12-19T21:38:54.727Z,25.47
2022-12-19T21:41:21.748Z,24.30
2022-12-19T21:43:54.135Z,26.37
2022-12-19T21:46:25.438Z,26.17
2022-12-19T21:48:55.187Z,28.13
2022-12-19T21:51:25.616Z,26.67
2022-12-19T21:54:03.112Z,26.03
2022-12-19T21:56:36.643Z,27.50
2022-12-19T21:59:11.224Z,27.33
2022-12-19T22:01:38.280Z,26.17
2022-12-19T22:04:10.787Z,27.80
2022-12-19T22:06:38.766Z,29.90
2022-12-19T22:09:09.018Z,32.40
2022-12-19T22:11:36.750Z,28.50
2022-12-19T22:14:05.206Z,28.43
2022-12-19T22:16:33.201Z,28.07
2022-12-19T22:19:00.699Z,28.00
2022-12-19T22:21:28.180Z,28.63
2022-12-19T22:23:59.830Z,27.00
2022-12-19T22:26:29.355Z,26.47
2022-12-19T22:28:58.168Z,27.83
2022-12-19T22:31:31.110Z,26.57
2022-12-19T22:34:07.831Z,27.30
2022-12-19T22:36:37.421Z,26.00
2022-12-19T22:39:07.264Z,25.43
2022-12-19T22:41:36.176Z,26.03
2022-12-19T22:44:03.564Z,26.60
2022-12-19T22:46:36.497Z,27.83
2022-12-19T22:49:08.688Z,25.77
2022-12-19T22:51:36.650Z,25.90
2022-12-19T22:54:05.446Z,25.93
2022-12-19T22:56:33.979Z,23.70
2022-12-19T22:59:05.024Z,26.53
2022-12-19T23:01:36.937Z,24.93
2022-12-19T23:04:05.542Z,25.37
2022-12-19T23:06:35.015Z,24.97
2022-12-19T23:09:02.908Z,23.07
2022-12-19T23:11:36.892Z,25.03
2022-12-19T23:14:09.639Z,23.60
2022-12-19T23:16:36.646Z,25.13
2022-12-19T23:19:05.356Z,25.53
2022-12-19T23:21:32.386Z,23.90
2022-12-19T23:23:59.173Z,26.23
2022-12-19T23:26:30.085Z,24.63
2022-12-19T23:29:09.912Z,24.33
2022-12-19T23:31:40.819Z,24.17
2022-12-19T23:34:08.035Z,24.50
2022-12-19T23:39:21.618Z,24.47
2022-12-19T23:41:48.413Z,24.37
2022-12-19T23:44:15.384Z,25.20
2022-12-19T23:46:42.234Z,24.83
2022-12-19T23:49:09.019Z,25.13
2022-12-19T23:51:35.844Z,24.27
2022-12-19T23:54:02.617Z,24.30
2022-12-19T23:56:31.522Z,25.17
2022-12-19T23:58:59.322Z,24.83
